Julien, Iowa
Current Conditions -  °F | °C
As of 11:53 AM on Friday 28 Nov 2014 (Local Time) from KDBQ Reporting Station
Clear Clear  
Wind Chill: 11°   Ceiling: Unl
Heat Index: 24°   Visibility: 10mi
Dew Point: 19°   Wind: 17mph
Humidity: 81%   Direction: 170°S
Pressure: 29.96"   Gusts: NA
Location:  42.549°N, 90.6988°W
Report Text: KDBQ 281753Z 17015KT 10SM CLR M04/M07 A2996 RMK AO2 SLP166 T10441072 11044 21100 58031
Loading
Personal Weather Stations






























Interactive Weather Map New forecast layout! Learn more

10-Day Weather Forecast

Advertisements
Track Severe Weather on mobile